Time;durP1;ratioP1;P1;durP2;ratioP2;P2;SDS_P1;SDS_P2;PMS_P1;PMS_P2;Temp;Humidity;BMP_temperature;BMP_pressure;BME280_temperature;BME280_humidity;BME280_pressure;Samples;Min_cycle;Max_cycle;Signal;HPM_P1;HPM_P2
2023/04/04 00:01:59;;;;;;;7.17;3.37;;;;;;;8.60;100.00;93205.63;5092736;28;20204;-80
2023/04/04 00:04:26;;;;;;;10.17;3.60;;;;;;;8.60;100.00;93210.81;5095526;28;20204;-81
2023/04/04 00:06:53;;;;;;;8.10;3.73;;;;;;;8.62;100.00;93206.19;5096230;28;20196;-81
2023/04/04 00:09:22;;;;;;;8.43;4.03;;;;;;;8.65;100.00;93200.53;5098770;28;20437;-80
2023/04/04 00:11:51;;;;;;;7.43;3.57;;;;;;;8.70;100.00;93208.34;5092745;28;20196;-79
2023/04/04 00:14:18;;;;;;;12.57;4.33;;;;;;;8.69;100.00;93198.22;5096608;28;20694;-79
2023/04/04 00:16:44;;;;;;;9.17;4.70;;;;;;;8.69;100.00;93204.19;5094898;28;20189;-81
2023/04/04 00:19:16;;;;;;;13.30;5.77;;;;;;;8.72;100.00;93202.91;5099369;28;20215;-79
2023/04/04 00:21:43;;;;;;;16.93;6.40;;;;;;;8.83;100.00;93205.38;5093272;28;20220;-79
2023/04/04 00:24:11;;;;;;;15.93;6.97;;;;;;;8.84;100.00;93199.19;5095138;28;20196;-80
2023/04/04 00:26:39;;;;;;;17.33;7.23;;;;;;;8.86;100.00;93204.13;5099916;28;20706;-79
2023/04/04 00:29:06;;;;;;;18.43;7.23;;;;;;;8.77;100.00;93193.44;5090683;28;20230;-80
2023/04/04 00:31:32;;;;;;;20.03;6.77;;;;;;;8.82;100.00;93195.28;5095062;28;20189;-80
2023/04/04 00:33:59;;;;;;;15.83;7.17;;;;;;;8.84;100.00;93183.66;5095988;28;20192;-80
2023/04/04 00:36:26;;;;;;;17.27;6.60;;;;;;;8.84;100.00;93175.09;5095534;28;20198;-79
2023/04/04 00:38:53;;;;;;;19.17;7.10;;;;;;;8.87;100.00;93177.19;5091352;28;20219;-78
2023/04/04 00:41:21;;;;;;;14.47;6.70;;;;;;;8.92;100.00;93185.00;5095693;28;20644;-81
2023/04/04 00:43:49;;;;;;;16.23;6.83;;;;;;;8.85;100.00;93172.28;5095062;28;20220;-80
2023/04/04 00:46:17;;;;;;;12.30;6.07;;;;;;;8.95;100.00;93187.91;5096690;28;20325;-79
2023/04/04 00:48:44;;;;;;;16.00;6.27;;;;;;;8.95;100.00;93174.94;5096311;28;20294;-79
2023/04/04 00:51:11;;;;;;;14.70;6.27;;;;;;;8.95;100.00;93180.13;5098569;28;20211;-79
2023/04/04 00:53:38;;;;;;;13.77;5.87;;;;;;;9.00;100.00;93158.69;5103649;28;20209;-80
2023/04/04 00:56:05;;;;;;;12.17;5.43;;;;;;;9.00;100.00;93161.28;5100965;28;20211;-80
2023/04/04 00:58:32;;;;;;;9.33;5.07;;;;;;;8.99;100.00;93160.50;5102741;28;20196;-79
2023/04/04 01:01:01;;;;;;;11.73;5.60;;;;;;;9.00;100.00;93164.63;5102703;27;20273;-79
2023/04/04 01:03:28;;;;;;;7.80;5.30;;;;;;;9.05;100.00;93169.88;5104283;28;20200;-80
2023/04/04 01:05:55;;;;;;;10.93;5.60;;;;;;;9.01;100.00;93161.03;5096875;28;20197;-79
2023/04/04 01:08:26;;;;;;;9.97;6.03;;;;;;;8.97;100.00;93175.50;5097081;28;20271;-81
2023/04/04 01:10:53;;;;;;;8.07;5.50;;;;;;;8.98;100.00;93176.25;5097120;28;20257;-79
2023/04/04 01:13:21;;;;;;;7.60;5.10;;;;;;;8.90;100.00;93189.66;5097541;28;20849;-80
2023/04/04 01:15:48;;;;;;;6.23;4.73;;;;;;;8.85;100.00;93185.22;5098854;28;20751;-80
2023/04/04 01:18:20;;;;;;;5.53;4.67;;;;;;;8.82;100.00;93185.72;5098488;28;20193;-80
2023/04/04 01:20:54;;;;;;;5.10;4.60;;;;;;;8.82;100.00;93190.88;5095110;28;20228;-80
2023/04/04 01:23:24;;;;;;;5.17;4.53;;;;;;;8.87;100.00;93196.13;5097938;28;20192;-80
2023/04/04 01:26:01;;;;;;;5.23;4.23;;;;;;;8.90;100.00;93198.22;5103068;28;20223;-81
2023/04/04 01:28:28;;;;;;;6.10;5.13;;;;;;;8.90;100.00;93202.59;5100901;28;20674;-81
2023/04/04 01:30:57;;;;;;;7.33;5.10;;;;;;;8.81;100.00;93181.53;5096284;28;20196;-80
2023/04/04 01:33:28;;;;;;;6.60;4.97;;;;;;;8.87;100.00;93180.56;5100692;28;20227;-80
2023/04/04 01:36:05;;;;;;;6.70;5.70;;;;;;;8.87;100.00;93179.78;5094899;28;20189;-80
2023/04/04 01:38:41;;;;;;;5.30;4.80;;;;;;;8.93;100.00;93182.19;5098562;28;20219;-80
2023/04/04 01:41:12;;;;;;;6.30;5.30;;;;;;;9.00;100.00;93177.59;5104328;28;20674;-79
2023/04/04 01:43:39;;;;;;;5.07;4.57;;;;;;;9.01;100.00;93173.19;5096586;28;20298;-79
2023/04/04 01:46:06;;;;;;;5.70;4.77;;;;;;;9.06;100.00;93168.06;5100168;28;20588;-79
2023/04/04 01:48:33;;;;;;;6.47;5.67;;;;;;;9.05;100.00;93156.91;5092192;28;20251;-79
2023/04/04 01:51:01;;;;;;;9.03;7.20;;;;;;;9.08;100.00;93156.44;5094221;28;20208;-79
2023/04/04 01:53:28;;;;;;;12.53;9.93;;;;;;;9.11;100.00;93155.94;5101792;28;20262;-79
2023/04/04 01:55:55;;;;;;;19.20;15.50;;;;;;;9.08;100.00;93135.69;5096411;28;20254;-79
2023/04/04 01:58:23;;;;;;;14.80;12.57;;;;;;;9.07;100.00;93135.94;5092484;28;20849;-79
2023/04/04 02:00:50;;;;;;;10.57;8.33;;;;;;;9.08;100.00;93140.09;5093248;28;20235;-80
2023/04/04 02:03:17;;;;;;;6.77;5.60;;;;;;;9.08;100.00;93133.13;5099535;28;20204;-81
2023/04/04 02:05:44;;;;;;;3.77;3.10;;;;;;;8.94;100.00;93118.22;5097585;28;20219;-80
2023/04/04 02:08:14;;;;;;;3.50;3.20;;;;;;;9.09;100.00;93141.69;5095857;28;20197;-79
2023/04/04 02:10:40;;;;;;;4.60;4.10;;;;;;;9.11;100.00;93142.19;5097129;28;20204;-79
2023/04/04 02:13:07;;;;;;;4.93;4.10;;;;;;;9.02;100.00;93135.91;5096922;28;20278;-79
2023/04/04 02:15:38;;;;;;;3.93;3.53;;;;;;;9.04;100.00;93136.44;5094460;28;20208;-79
2023/04/04 02:18:04;;;;;;;4.80;3.23;;;;;;;8.68;100.00;93077.56;5099203;28;20208;-79
2023/04/04 02:20:31;;;;;;;3.90;3.13;;;;;;;9.01;100.00;93129.13;5101412;28;20280;-80
2023/04/04 02:22:58;;;;;;;4.13;3.03;;;;;;;9.00;100.00;93132.78;5095919;28;20216;-79
2023/04/04 02:25:25;;;;;;;3.50;3.20;;;;;;;8.98;100.00;93134.81;5096281;28;20193;-80
2023/04/04 02:27:52;;;;;;;4.23;3.00;;;;;;;8.99;100.00;93129.41;5092252;28;20189;-79
2023/04/04 02:30:19;;;;;;;3.20;2.90;;;;;;;8.96;100.00;93127.31;5092524;28;20258;-81
2023/04/04 02:32:47;;;;;;;4.73;3.10;;;;;;;8.96;100.00;93131.69;5096878;28;21217;-79
2023/04/04 02:35:15;;;;;;;4.70;3.20;;;;;;;8.90;100.00;93125.69;5095553;28;20640;-81
2023/04/04 02:37:45;;;;;;;3.33;2.93;;;;;;;8.90;100.00;93133.47;5097608;28;20211;-81
2023/04/04 02:40:12;;;;;;;4.17;2.97;;;;;;;8.93;100.00;93132.97;5098542;28;20343;-80
2023/04/04 02:42:42;;;;;;;3.67;3.33;;;;;;;8.94;100.00;93136.34;5097033;28;20196;-81
2023/04/04 02:45:13;;;;;;;3.30;3.00;;;;;;;8.91;100.00;93134.25;5096715;28;20769;-79
2023/04/04 02:47:40;;;;;;;3.43;3.13;;;;;;;8.96;100.00;93139.47;5102137;28;20236;-80
2023/04/04 02:50:09;;;;;;;4.23;3.27;;;;;;;8.89;100.00;93137.06;5096525;28;20204;-80
2023/04/04 02:52:37;;;;;;;4.37;3.50;;;;;;;8.94;100.00;93144.13;5097212;28;20208;-81
2023/04/04 02:55:04;;;;;;;5.27;3.50;;;;;;;8.94;100.00;93142.31;5094879;28;20284;-80
2023/04/04 02:57:31;;;;;;;3.60;3.30;;;;;;;8.94;100.00;93138.94;5099781;28;20200;-81
2023/04/04 02:59:58;;;;;;;3.97;3.53;;;;;;;8.93;100.00;93143.34;5093663;28;20215;-81
2023/04/04 03:02:25;;;;;;;4.27;3.30;;;;;;;8.95;100.00;93143.06;5095642;28;20212;-80
2023/04/04 03:04:52;;;;;;;2.70;2.50;;;;;;;8.99;100.00;93146.75;5094382;28;20284;-80
2023/04/04 03:07:20;;;;;;;2.30;2.10;;;;;;;8.91;100.00;93154.97;5093437;28;20224;-80
2023/04/04 03:09:47;;;;;;;2.83;2.57;;;;;;;8.94;100.00;93160.44;5094536;28;20232;-79
2023/04/04 03:12:14;;;;;;;3.63;2.90;;;;;;;8.91;100.00;93163.53;5094495;28;20200;-80
2023/04/04 03:14:41;;;;;;;4.97;3.63;;;;;;;8.84;100.00;93160.34;5091295;28;20201;-80
2023/04/04 03:17:09;;;;;;;9.50;5.70;;;;;;;8.80;100.00;93156.66;5094128;28;20674;-80
2023/04/04 03:19:36;;;;;;;6.03;5.37;;;;;;;8.80;100.00;93161.84;5095355;28;20224;-80
2023/04/04 03:22:03;;;;;;;6.47;5.27;;;;;;;8.83;100.00;93153.56;5092057;28;20200;-81
2023/04/04 03:24:31;;;;;;;5.47;4.43;;;;;;;8.90;100.00;93153.38;5096040;28;20196;-82
2023/04/04 03:27:00;;;;;;;4.07;3.67;;;;;;;8.89;100.00;93162.19;5089389;28;20192;-82
2023/04/04 03:29:27;;;;;;;4.73;3.97;;;;;;;8.96;100.00;93160.19;5092228;28;20205;-82
2023/04/04 03:31:53;;;;;;;4.80;3.77;;;;;;;8.98;100.00;93156.31;5097552;28;20192;-81
2023/04/04 03:34:22;;;;;;;4.97;4.00;;;;;;;8.96;100.00;93155.78;5091195;28;20679;-80
2023/04/04 03:36:48;;;;;;;4.60;4.10;;;;;;;8.93;100.00;93156.28;5094898;28;20674;-80
2023/04/04 03:39:15;;;;;;;6.87;4.83;;;;;;;8.93;100.00;93156.28;5091794;28;20193;-79
2023/04/04 03:41:44;;;;;;;7.27;4.87;;;;;;;9.03;100.00;93161.53;5100149;28;20611;-81
2023/04/04 03:44:10;;;;;;;9.70;7.10;;;;;;;9.03;100.00;93155.59;5098171;28;20196;-79
2023/04/04 03:46:37;;;;;;;14.90;10.30;;;;;;;9.08;100.00;93163.41;5094907;28;20204;-81
2023/04/04 03:49:04;;;;;;;17.60;11.37;;;;;;;9.05;100.00;93166.50;5090460;28;20241;-82
2023/04/04 03:51:31;;;;;;;17.23;12.87;;;;;;;8.95;100.00;93153.44;5093588;28;20211;-81
2023/04/04 03:53:57;;;;;;;19.27;13.67;;;;;;;8.96;100.00;93166.16;5095940;28;20196;-81
2023/04/04 03:56:24;;;;;;;20.90;14.20;;;;;;;8.96;100.00;93165.38;5091622;28;20266;-81
2023/04/04 03:58:54;;;;;;;26.87;17.60;;;;;;;8.85;100.00;93153.34;5095993;28;20215;-79
2023/04/04 04:01:22;;;;;;;30.70;22.70;;;;;;;8.93;100.00;93161.47;5092690;28;20228;-81
2023/04/04 04:03:48;;;;;;;32.93;23.93;;;;;;;8.83;100.00;93158.75;5096975;28;20689;-81
2023/04/04 04:06:15;;;;;;;29.80;21.40;;;;;;;8.79;100.00;93162.09;5093013;28;20197;-80
2023/04/04 04:08:42;;;;;;;29.17;20.73;;;;;;;8.68;100.00;93145.69;5097023;28;20206;-81
2023/04/04 04:11:09;;;;;;;28.77;20.10;;;;;;;8.85;100.00;93164.50;5093919;28;20201;-81
2023/04/04 04:13:37;;;;;;;33.30;21.97;;;;;;;8.83;100.00;93163.94;5096407;28;20833;-81
2023/04/04 04:16:06;;;;;;;31.97;20.17;;;;;;;8.83;100.00;93163.19;5097299;28;20197;-81
2023/04/04 04:18:33;;;;;;;28.13;18.33;;;;;;;8.79;100.00;93168.06;5092081;28;20602;-82
2023/04/04 04:21:01;;;;;;;33.00;20.27;;;;;;;8.82;100.00;93174.56;5093895;28;20732;-82
2023/04/04 04:23:28;;;;;;;33.13;22.43;;;;;;;8.77;100.00;93169.34;5100897;28;20193;-82
2023/04/04 04:25:55;;;;;;;36.73;20.93;;;;;;;8.79;100.00;93162.09;5107174;28;20568;-82
2023/04/04 04:28:22;;;;;;;27.67;18.57;;;;;;;8.79;100.00;93162.09;5094945;28;20207;-82
2023/04/04 04:30:50;;;;;;;26.47;16.93;;;;;;;8.80;100.00;93171.44;5098745;28;20282;-82
2023/04/04 04:33:18;;;;;;;22.90;15.67;;;;;;;8.78;100.00;93176.06;5093616;28;20201;-82
2023/04/04 04:35:45;;;;;;;27.27;15.87;;;;;;;8.69;100.00;93183.47;5097312;28;20246;-82
2023/04/04 04:38:12;;;;;;;24.70;14.90;;;;;;;8.71;100.00;93181.44;5105833;28;20795;-83
2023/04/04 04:40:39;;;;;;;24.77;14.80;;;;;;;8.63;100.00;93175.91;5103392;28;20236;-82
2023/04/04 04:43:06;;;;;;;21.83;14.03;;;;;;;8.53;100.00;93195.47;5096008;28;20228;-84
2023/04/04 04:45:33;;;;;;;21.93;14.50;;;;;;;8.32;100.00;93187.69;5097073;28;20215;-83
2023/04/04 04:48:00;;;;;;;26.93;16.10;;;;;;;8.23;100.00;93192.47;5102264;28;20600;-83
2023/04/04 04:50:28;;;;;;;25.37;16.50;;;;;;;8.14;100.00;93199.06;5097944;28;20193;-83
2023/04/04 04:52:55;;;;;;;29.37;18.30;;;;;;;8.20;100.00;93203.28;5098027;28;20206;-83
2023/04/04 04:55:22;;;;;;;25.50;17.23;;;;;;;8.25;100.00;93205.19;5095601;28;20643;-83
2023/04/04 04:57:48;;;;;;;27.37;17.53;;;;;;;8.31;100.00;93212.03;5102250;28;20196;-83
2023/04/04 05:00:16;;;;;;;35.97;20.57;;;;;;;8.30;100.00;93202.69;5098848;28;20687;-83
2023/04/04 05:02:43;;;;;;;33.43;20.60;;;;;;;8.43;100.00;93216.06;5093810;28;20198;-83
2023/04/04 05:05:10;;;;;;;34.77;20.47;;;;;;;8.49;100.00;93220.28;5100691;28;20216;-83
2023/04/04 05:07:38;;;;;;;27.10;17.27;;;;;;;8.54;100.00;93222.16;5094837;28;20228;-84
2023/04/04 05:10:06;;;;;;;27.13;16.20;;;;;;;8.55;100.00;93218.53;5102549;28;20260;-81
2023/04/04 05:12:33;;;;;;;25.90;17.07;;;;;;;8.63;100.00;93228.44;5098964;28;20211;-81
2023/04/04 05:15:00;;;;;;;28.57;16.60;;;;;;;8.66;100.00;93229.81;5092603;28;20228;-82
2023/04/04 05:17:27;;;;;;;23.10;14.53;;;;;;;8.64;100.00;93229.25;5096715;28;20211;-80
2023/04/04 05:19:54;;;;;;;20.13;13.67;;;;;;;8.60;100.00;93231.53;5096079;28;20307;-81
2023/04/04 05:22:21;;;;;;;24.07;14.43;;;;;;;8.49;100.00;93224.66;5099920;28;20258;-82
2023/04/04 05:24:50;;;;;;;22.03;14.97;;;;;;;8.41;100.00;93225.88;5097442;28;20200;-81
2023/04/04 05:27:17;;;;;;;27.13;16.13;;;;;;;8.36;100.00;93231.00;5094238;28;20287;-81
2023/04/04 05:29:45;;;;;;;24.37;16.17;;;;;;;8.29;100.00;93232.94;5098011;28;20207;-82
2023/04/04 05:32:11;;;;;;;21.57;15.07;;;;;;;8.25;100.00;93238.81;5101444;28;20294;-81
2023/04/04 05:34:38;;;;;;;24.77;15.83;;;;;;;8.27;100.00;93236.78;5100730;28;20204;-81
2023/04/04 05:37:05;;;;;;;27.90;16.97;;;;;;;8.43;100.00;93236.75;5098462;28;20204;-82
2023/04/04 05:39:32;;;;;;;25.80;17.33;;;;;;;8.48;100.00;93236.06;5095505;28;20583;-83
2023/04/04 05:42:00;;;;;;;26.50;17.33;;;;;;;8.55;100.00;93249.59;5095794;28;20239;-82
2023/04/04 05:44:27;;;;;;;24.77;15.13;;;;;;;8.61;100.00;93247.84;5099061;28;20200;-82
2023/04/04 05:46:53;;;;;;;19.40;14.30;;;;;;;8.76;100.00;93253.22;5097893;28;20667;-82
2023/04/04 05:49:20;;;;;;;19.67;13.23;;;;;;;8.73;100.00;93231.19;5094046;28;20229;-83
2023/04/04 05:51:47;;;;;;;14.63;10.63;;;;;;;8.87;100.00;93254.91;5096312;28;20196;-82
2023/04/04 05:54:14;;;;;;;19.53;12.63;;;;;;;8.95;100.00;93257.06;5096821;28;20200;-82
2023/04/04 05:56:41;;;;;;;16.90;11.17;;;;;;;8.83;100.00;93251.25;5096381;28;20213;-81
2023/04/04 05:59:09;;;;;;;15.30;10.93;;;;;;;8.75;100.00;93234.31;5097850;28;20227;-81
2023/04/04 06:01:36;;;;;;;15.93;10.90;;;;;;;8.98;100.00;93248.81;5095432;28;20313;-81
2023/04/04 06:04:03;;;;;;;14.90;10.13;;;;;;;8.96;100.00;93253.44;5098697;28;20298;-82
2023/04/04 06:06:30;;;;;;;15.73;10.50;;;;;;;9.00;100.00;93249.38;5101556;28;20199;-81
2023/04/04 06:08:57;;;;;;;16.70;11.60;;;;;;;9.03;100.00;93260.00;5096983;28;20200;-81
2023/04/04 06:11:23;;;;;;;18.57;12.93;;;;;;;9.08;100.00;93259.28;5095415;28;20199;-82
2023/04/04 06:13:51;;;;;;;21.33;13.90;;;;;;;9.08;100.00;93260.09;5096774;28;20185;-81
2023/04/04 06:16:19;;;;;;;21.37;14.17;;;;;;;9.12;100.00;93266.31;5097478;28;20196;-82
2023/04/04 06:18:46;;;;;;;20.70;13.63;;;;;;;9.11;100.00;93254.41;5098725;28;20192;-85
2023/04/04 06:21:14;;;;;;;19.63;13.57;;;;;;;9.39;100.00;93268.94;5095670;28;20220;-85
2023/04/04 06:23:41;;;;;;;21.27;13.20;;;;;;;9.53;100.00;93274.50;5092705;28;20212;-82
2023/04/04 06:26:08;;;;;;;14.10;9.67;;;;;;;9.44;100.00;93263.00;5100465;28;20200;-82
2023/04/04 06:28:35;;;;;;;9.73;6.60;;;;;;;9.34;100.00;93270.72;5092175;28;20212;-83
2023/04/04 06:31:05;;;;;;;7.70;5.50;;;;;;;9.28;100.00;93280.25;5099318;28;20226;-82
2023/04/04 06:33:33;;;;;;;5.23;3.40;;;;;;;9.08;100.00;93296.34;5094175;28;20253;-83
2023/04/04 06:36:00;;;;;;;2.47;2.20;;;;;;;8.48;100.00;93298.19;5096861;28;20204;-83
2023/04/04 06:38:28;;;;;;;2.57;1.73;;;;;;;8.20;100.00;93308.59;5095724;28;20212;-83
2023/04/04 06:40:55;;;;;;;2.67;2.23;;;;;;;8.06;100.00;93315.09;5098014;28;20216;-83
2023/04/04 06:43:24;;;;;;;3.73;3.17;;;;;;;7.90;100.00;93327.81;5091816;28;20318;-84
2023/04/04 06:45:51;;;;;;;4.60;3.00;;;;;;;7.62;100.00;93324.50;5093187;28;20215;-84
2023/04/04 06:48:18;;;;;;;4.07;3.10;;;;;;;7.55;100.00;93327.22;5101705;28;20278;-81
2023/04/04 06:50:46;;;;;;;4.47;3.10;;;;;;;7.52;100.00;93335.44;5101381;28;20204;-83
2023/04/04 06:53:13;;;;;;;4.23;2.30;;;;;;;7.23;100.00;93331.25;5097330;28;20204;-82
2023/04/04 06:55:40;;;;;;;3.70;2.77;;;;;;;7.20;100.00;93350.59;5097498;28;20196;-83
2023/04/04 06:58:07;;;;;;;3.10;2.30;;;;;;;6.96;100.00;93348.28;5098103;28;20242;-82
2023/04/04 07:00:34;;;;;;;2.33;2.13;;;;;;;6.80;100.00;93355.75;5092552;28;20204;-81
2023/04/04 07:03:01;;;;;;;2.63;2.17;;;;;;;6.57;100.00;93349.81;5098627;28;20195;-81
2023/04/04 07:05:28;;;;;;;2.37;1.87;;;;;;;6.51;100.00;93366.19;5100135;28;20192;-82
2023/04/04 07:07:57;;;;;;;2.97;2.20;;;;;;;6.30;100.00;93377.84;5100573;28;20620;-82
2023/04/04 07:10:24;;;;;;;4.00;2.60;;;;;;;6.10;100.00;93372.22;5101619;28;20211;-82
2023/04/04 07:12:51;;;;;;;2.50;1.90;;;;;;;6.04;100.00;93385.97;5096606;28;20195;-82
2023/04/04 07:15:17;;;;;;;4.27;3.00;;;;;;;6.01;100.00;93401.91;5092232;28;20214;-82
2023/04/04 07:17:44;;;;;;;3.33;2.33;;;;;;;5.87;100.00;93391.00;5097255;28;20207;-83
2023/04/04 07:20:15;;;;;;;2.17;1.97;;;;;;;5.63;100.00;93409.91;5098758;28;20201;-82
2023/04/04 07:22:43;;;;;;;3.00;2.37;;;;;;;5.47;100.00;93395.09;5098907;28;20226;-81
2023/04/04 07:25:14;;;;;;;3.83;2.47;;;;;;;5.41;100.00;93421.69;5091318;28;20208;-80
2023/04/04 07:27:41;;;;;;;4.33;2.67;;;;;;;5.37;100.00;93413.63;5097919;28;20273;-81
2023/04/04 07:30:09;;;;;;;6.40;3.40;;;;;;;5.56;100.00;93425.50;5095928;28;20210;-81
2023/04/04 07:32:36;;;;;;;4.57;3.27;;;;;;;5.67;100.00;93432.47;5092769;28;20199;-81
2023/04/04 07:35:05;;;;;;;2.87;2.40;;;;;;;5.71;100.00;93436.16;5091122;28;20292;-80
2023/04/04 07:37:35;;;;;;;4.87;2.00;;;;;;;5.57;100.00;93442.50;5093208;28;20199;-82
2023/04/04 07:40:02;;;;;;;9.67;2.90;;;;;;;5.45;100.00;93446.03;5088118;28;20199;-81
2023/04/04 07:42:30;;;;;;;6.03;3.43;;;;;;;5.57;100.00;93450.22;5096523;28;20230;-81
2023/04/04 07:44:57;;;;;;;4.33;3.07;;;;;;;5.62;100.00;93468.41;5099306;28;20211;-80
2023/04/04 07:47:25;;;;;;;4.27;2.77;;;;;;;5.61;100.00;93448.81;5097921;28;20663;-83
2023/04/04 07:49:52;;;;;;;3.27;2.47;;;;;;;5.52;100.00;93460.41;5102933;28;20195;-82
2023/04/04 07:52:18;;;;;;;4.47;2.93;;;;;;;5.51;100.00;93461.41;5106231;28;20574;-83
2023/04/04 07:54:46;;;;;;;4.00;3.40;;;;;;;5.46;100.00;93474.16;5110544;28;20207;-81
2023/04/04 07:57:13;;;;;;;6.80;4.60;;;;;;;5.49;100.00;93452.31;5103364;28;20214;-82
2023/04/04 07:59:41;;;;;;;4.07;3.00;;;;;;;5.42;100.00;93459.34;5105656;28;20212;-82
2023/04/04 08:02:08;;;;;;;3.90;2.60;;;;;;;5.36;100.00;93455.06;5106567;28;20230;-83
2023/04/04 08:04:35;;;;;;;5.90;3.00;;;;;;;5.38;100.00;93473.66;5106956;28;20225;-84
2023/04/04 08:07:02;;;;;;;3.87;3.10;;;;;;;5.13;100.00;93453.13;5103792;28;20196;-84
2023/04/04 08:09:33;;;;;;;3.43;2.90;;;;;;;5.12;100.00;93485.00;5101578;28;20207;-83
2023/04/04 08:12:04;;;;;;;3.23;2.13;;;;;;;4.86;100.00;93483.47;5102946;28;20270;-81
2023/04/04 08:14:31;;;;;;;2.50;2.10;;;;;;;4.63;100.00;93488.44;5094749;28;20234;-84
2023/04/04 08:17:05;;;;;;;3.37;2.60;;;;;;;4.57;100.00;93489.25;5098919;28;20637;-85
2023/04/04 08:19:43;;;;;;;4.20;3.03;;;;;;;4.56;100.00;93488.47;5097335;28;20189;-84
2023/04/04 08:22:11;;;;;;;7.73;5.73;;;;;;;4.27;100.00;93460.78;5094679;28;20725;-84
2023/04/04 08:24:38;;;;;;;7.17;5.10;;;;;;;4.41;100.00;93506.03;5092501;28;20203;-82
2023/04/04 08:27:05;;;;;;;6.20;5.03;;;;;;;4.01;100.00;93473.84;5098375;28;20211;-83
2023/04/04 08:29:53;;;;;;;4.33;3.37;;;;;;;4.22;100.00;93521.56;5096345;28;20213;-83
2023/04/04 08:32:24;;;;;;;4.17;2.80;;;;;;;4.05;100.00;93490.41;5092081;28;20202;-86
2023/04/04 08:34:51;;;;;;;2.73;2.10;;;;;;;4.20;100.00;93498.63;5098078;28;20210;-85
2023/04/04 08:37:18;;;;;;;3.30;2.37;;;;;;;4.29;100.00;93527.44;5101503;28;20199;-82
2023/04/04 08:39:48;;;;;;;3.33;2.57;;;;;;;3.99;100.00;93494.59;5091577;28;20554;-86
2023/04/04 08:42:19;;;;;;;3.67;2.70;;;;;;;4.15;100.00;93531.88;5094507;28;20220;-83
2023/04/04 08:44:48;;;;;;;4.27;3.13;;;;;;;4.00;100.00;93515.94;5093538;28;20197;-82
2023/04/04 08:47:16;;;;;;;6.07;4.80;;;;;;;4.03;100.00;93519.88;5098311;28;20230;-83
2023/04/04 08:49:47;;;;;;;3.10;2.70;;;;;;;4.03;100.00;93530.97;5091079;28;20197;-84
2023/04/04 08:52:18;;;;;;;6.73;3.07;;;;;;;4.08;100.00;93533.69;5101196;28;20720;-85
2023/04/04 08:54:45;;;;;;;3.47;2.67;;;;;;;4.10;100.00;93543.78;5095292;28;20271;-85
2023/04/04 08:57:12;;;;;;;5.10;3.20;;;;;;;3.84;100.00;93486.38;5098340;28;20197;-83
2023/04/04 08:59:39;;;;;;;4.37;3.20;;;;;;;4.28;100.00;93544.66;5094181;28;20201;-83
2023/04/04 09:02:20;;;;;;;4.23;3.10;;;;;;;4.26;100.00;93551.00;5094611;28;20248;-84
2023/04/04 09:04:49;;;;;;;3.77;2.63;;;;;;;4.27;100.00;93544.88;5097214;28;20211;-80
2023/04/04 09:07:28;;;;;;;5.63;3.77;;;;;;;4.08;100.00;93510.56;5097879;28;20199;-84
2023/04/04 09:09:56;;;;;;;7.20;3.93;;;;;;;4.35;100.00;93547.19;5098626;28;20211;-84
2023/04/04 09:12:24;;;;;;;8.23;5.67;;;;;;;4.30;100.00;93557.31;5099822;28;20552;-85
2023/04/04 09:14:53;;;;;;;9.57;6.17;;;;;;;4.29;100.00;93559.09;5096165;28;20201;-83
2023/04/04 09:17:19;;;;;;;11.23;7.20;;;;;;;4.17;100.00;93542.75;5099824;28;20292;-85
2023/04/04 09:19:48;;;;;;;9.27;6.63;;;;;;;4.35;100.00;93562.63;5097668;28;21182;-82
2023/04/04 09:22:16;;;;;;;8.90;5.43;;;;;;;4.40;100.00;93561.00;5099336;28;20821;-85
2023/04/04 09:24:44;;;;;;;5.00;3.30;;;;;;;4.42;100.00;93560.78;5099931;28;20704;-84
2023/04/04 09:27:12;;;;;;;7.83;5.10;;;;;;;4.26;100.00;93523.53;5096183;28;20210;-83
2023/04/04 09:29:39;;;;;;;12.20;8.00;;;;;;;4.50;100.00;93556.19;5097062;28;20218;-83
2023/04/04 09:32:08;;;;;;;9.73;6.93;;;;;;;4.44;100.00;93564.72;5100483;28;20209;-83
2023/04/04 09:34:36;;;;;;;5.80;3.80;;;;;;;4.32;100.00;93571.53;5099884;28;20231;-81
2023/04/04 09:37:05;;;;;;;6.83;3.43;;;;;;;4.22;100.00;93567.81;5099202;28;20241;-84
2023/04/04 09:39:33;;;;;;;7.00;3.83;;;;;;;4.13;100.00;93577.56;5096436;28;20200;-83
2023/04/04 09:42:00;;;;;;;6.60;4.17;;;;;;;4.13;100.00;93575.00;5100039;28;20223;-82
2023/04/04 09:44:32;;;;;;;6.50;4.27;;;;;;;4.14;100.00;93573.22;5094391;28;20967;-82
2023/04/04 09:47:21;;;;;;;6.43;4.10;;;;;;;4.11;100.00;93558.19;5100900;28;20200;-83
2023/04/04 09:49:49;;;;;;;5.53;3.43;;;;;;;4.32;100.00;93575.91;5095952;28;20208;-82
2023/04/04 09:52:24;;;;;;;6.60;3.37;;;;;;;4.01;100.00;93541.44;5098065;28;20202;-83
2023/04/04 09:54:59;;;;;;;5.83;3.30;;;;;;;3.75;100.00;93518.44;5101604;28;20241;-81
2023/04/04 09:57:46;;;;;;;6.70;3.50;;;;;;;3.82;100.00;93542.31;5098019;28;20205;-81
2023/04/04 10:00:27;;;;;;;7.17;4.50;;;;;;;3.94;100.00;93555.31;5099980;28;20207;-84
2023/04/04 10:02:58;;;;;;;7.03;4.60;;;;;;;4.20;100.00;93575.75;5097650;28;20290;-83
2023/04/04 10:05:26;;;;;;;6.70;4.83;;;;;;;4.23;100.00;93579.69;5098986;28;20303;-83
2023/04/04 10:07:54;;;;;;;5.70;4.20;;;;;;;3.99;100.00;93529.78;5094209;28;20225;-84
2023/04/04 10:10:22;;;;;;;6.23;3.60;;;;;;;4.30;100.00;93570.94;5096842;28;20201;-83
2023/04/04 10:12:52;;;;;;;7.13;3.73;;;;;;;3.77;100.00;93500.25;5101581;28;20192;-83
2023/04/04 10:15:23;;;;;;;4.47;3.50;;;;;;;3.87;100.00;93518.56;5094654;28;20189;-83
2023/04/04 10:18:08;;;;;;;4.30;3.07;;;;;;;3.71;100.00;93504.44;5099704;28;20205;-82
2023/04/04 10:20:47;;;;;;;3.93;3.07;;;;;;;4.21;100.00;93582.47;5099643;28;20206;-84
2023/04/04 10:23:16;;;;;;;5.03;3.87;;;;;;;4.33;100.00;93598.81;5099382;28;20224;-84
2023/04/04 10:25:44;;;;;;;5.17;4.00;;;;;;;4.42;100.00;93599.38;5100759;28;20221;-84
2023/04/04 10:28:11;;;;;;;3.77;3.17;;;;;;;4.44;100.00;93603.31;5099462;28;20301;-85
2023/04/04 10:30:43;;;;;;;5.03;3.70;;;;;;;4.52;99.75;93603.09;5097107;28;20218;-82
2023/04/04 10:33:15;;;;;;;5.93;4.43;;;;;;;4.62;100.00;93622.41;5100061;28;20205;-83
2023/04/04 10:35:46;;;;;;;7.83;4.60;;;;;;;4.70;100.00;93611.88;5094507;28;20185;-82
2023/04/04 10:38:14;;;;;;;9.20;6.00;;;;;;;4.74;99.73;93631.81;5094539;28;20200;-83
2023/04/04 10:40:45;;;;;;;8.40;5.80;;;;;;;4.86;100.00;93626.81;5098307;28;20195;-83
2023/04/04 10:43:14;;;;;;;5.60;4.40;;;;;;;4.83;100.00;93622.88;5102091;28;20221;-85
2023/04/04 10:45:42;;;;;;;6.57;4.87;;;;;;;4.74;100.00;93618.97;5102418;28;20203;-83
2023/04/04 10:48:11;;;;;;;8.30;5.00;;;;;;;4.88;100.00;93629.94;5094682;28;20224;-85
2023/04/04 10:50:39;;;;;;;6.87;5.10;;;;;;;4.93;100.00;93627.56;5097622;28;20220;-85
2023/04/04 10:53:07;;;;;;;7.97;5.30;;;;;;;5.08;100.00;93630.59;5098214;28;20274;-84
2023/04/04 10:55:35;;;;;;;8.37;5.73;;;;;;;5.12;100.00;93642.06;5097741;28;20215;-85
2023/04/04 10:58:04;;;;;;;7.90;4.80;;;;;;;5.12;100.00;93652.38;5099720;28;20197;-85
2023/04/04 11:00:31;;;;;;;7.07;5.13;;;;;;;5.05;100.00;93631.03;5099283;28;20195;-83
2023/04/04 11:03:00;;;;;;;6.40;4.60;;;;;;;4.95;100.00;93635.84;5103618;28;20305;-83
2023/04/04 11:05:32;;;;;;;8.20;4.90;;;;;;;5.00;100.00;93630.88;5102571;28;20207;-85
2023/04/04 11:08:01;;;;;;;5.47;4.30;;;;;;;4.65;99.99;93598.84;5103013;28;20220;-84
2023/04/04 11:10:33;;;;;;;5.13;3.90;;;;;;;4.58;100.00;93651.13;5096876;28;20235;-86
2023/04/04 11:13:06;;;;;;;4.50;3.67;;;;;;;3.86;100.00;93579.47;5100402;28;20204;-82
2023/04/04 11:15:55;;;;;;;5.37;4.13;;;;;;;3.69;100.00;93552.66;5101480;28;20570;-83
2023/04/04 11:18:23;;;;;;;5.73;4.50;;;;;;;4.19;100.00;93646.16;5093733;28;20285;-85
2023/04/04 11:20:50;;;;;;;5.57;4.83;;;;;;;4.32;100.00;93650.47;5095175;28;20201;-85
2023/04/04 11:23:20;;;;;;;6.77;4.80;;;;;;;4.30;100.00;93662.75;5095770;28;20227;-86
2023/04/04 11:25:51;;;;;;;6.77;5.13;;;;;;;3.68;100.00;93568.25;5097908;28;20241;-82
2023/04/04 11:28:47;;;;;;;8.17;5.40;;;;;;;3.69;100.00;93567.28;5094603;28;20660;-88
2023/04/04 11:34:17;;;;;;;9.83;5.20;;;;;;;3.53;100.00;93572.84;5094872;28;20373;-86
2023/04/04 11:36:54;;;;;;;4.93;4.30;;;;;;;3.92;100.00;93630.06;5095284;28;20209;-85
2023/04/04 11:39:28;;;;;;;5.77;4.80;;;;;;;3.99;100.00;93648.78;5100872;28;20287;-84